sensor_id;sensor_type;location;lat;lon;timestamp;P1;durP1;ratioP1;P2;durP2;ratioP2
60098;SDS011;45976;49.400;8.682;2022-07-19T00:00:55;3.80;;;1.13;;
60098;SDS011;45976;49.400;8.682;2022-07-19T00:01:57;7.28;;;0.82;;
60098;SDS011;45976;49.400;8.682;2022-07-19T00:02:58;2.20;;;0.70;;
60098;SDS011;45976;49.400;8.682;2022-07-19T00:03:58;3.20;;;1.10;;
60098;SDS011;45976;49.400;8.682;2022-07-19T00:04:59;2.43;;;0.90;;
60098;SDS011;45976;49.400;8.682;2022-07-19T00:05:59;3.80;;;1.00;;
60098;SDS011;45976;49.400;8.682;2022-07-19T00:07:00;5.53;;;0.90;;
60098;SDS011;45976;49.400;8.682;2022-07-19T00:08:02;5.72;;;1.00;;
60098;SDS011;45976;49.400;8.682;2022-07-19T00:09:03;1.98;;;1.02;;
60098;SDS011;45976;49.400;8.682;2022-07-19T00:10:05;1.13;;;0.80;;
60098;SDS011;45976;49.400;8.682;2022-07-19T00:11:10;4.32;;;0.85;;
60098;SDS011;45976;49.400;8.682;2022-07-19T00:12:11;3.10;;;1.00;;
60098;SDS011;45976;49.400;8.682;2022-07-19T00:13:13;4.10;;;0.85;;
60098;SDS011;45976;49.400;8.682;2022-07-19T00:14:14;2.90;;;0.90;;
60098;SDS011;45976;49.400;8.682;2022-07-19T00:15:16;4.15;;;1.05;;
60098;SDS011;45976;49.400;8.682;2022-07-19T00:16:17;5.07;;;1.00;;
60098;SDS011;45976;49.400;8.682;2022-07-19T00:17:17;6.85;;;1.20;;
60098;SDS011;45976;49.400;8.682;2022-07-19T00:18:18;4.65;;;1.58;;
60098;SDS011;45976;49.400;8.682;2022-07-19T00:19:19;5.75;;;1.02;;
60098;SDS011;45976;49.400;8.682;2022-07-19T00:20:20;8.48;;;1.20;;
60098;SDS011;45976;49.400;8.682;2022-07-19T00:21:22;4.72;;;1.30;;
60098;SDS011;45976;49.400;8.682;2022-07-19T00:22:23;6.30;;;1.10;;
60098;SDS011;45976;49.400;8.682;2022-07-19T00:23:23;3.43;;;1.10;;
60098;SDS011;45976;49.400;8.682;2022-07-19T00:24:24;2.78;;;0.98;;
60098;SDS011;45976;49.400;8.682;2022-07-19T00:25:24;3.37;;;0.87;;
60098;SDS011;45976;49.400;8.682;2022-07-19T00:26:26;6.93;;;0.90;;
60098;SDS011;45976;49.400;8.682;2022-07-19T00:27:27;1.75;;;1.08;;
60098;SDS011;45976;49.400;8.682;2022-07-19T00:28:28;2.63;;;0.90;;
60098;SDS011;45976;49.400;8.682;2022-07-19T00:29:28;7.40;;;0.93;;
60098;SDS011;45976;49.400;8.682;2022-07-19T00:30:29;1.88;;;0.77;;
60098;SDS011;45976;49.400;8.682;2022-07-19T00:31:30;2.93;;;1.13;;
60098;SDS011;45976;49.400;8.682;2022-07-19T00:32:30;1.65;;;0.88;;
60098;SDS011;45976;49.400;8.682;2022-07-19T00:33:31;4.18;;;0.90;;
60098;SDS011;45976;49.400;8.682;2022-07-19T00:34:32;2.30;;;1.00;;
60098;SDS011;45976;49.400;8.682;2022-07-19T00:35:32;2.17;;;0.77;;
60098;SDS011;45976;49.400;8.682;2022-07-19T00:36:38;2.63;;;0.80;;
60098;SDS011;45976;49.400;8.682;2022-07-19T00:37:39;4.43;;;0.82;;
60098;SDS011;45976;49.400;8.682;2022-07-19T00:38:39;4.40;;;1.00;;
60098;SDS011;45976;49.400;8.682;2022-07-19T00:39:40;8.70;;;1.20;;
60098;SDS011;45976;49.400;8.682;2022-07-19T00:40:41;3.58;;;0.68;;
60098;SDS011;45976;49.400;8.682;2022-07-19T00:42:43;2.85;;;1.10;;
60098;SDS011;45976;49.400;8.682;2022-07-19T00:43:44;4.90;;;1.20;;
60098;SDS011;45976;49.400;8.682;2022-07-19T00:44:45;2.63;;;0.95;;
60098;SDS011;45976;49.400;8.682;2022-07-19T00:45:46;2.28;;;1.00;;
60098;SDS011;45976;49.400;8.682;2022-07-19T00:46:46;1.83;;;1.00;;
60098;SDS011;45976;49.400;8.682;2022-07-19T00:48:49;2.67;;;0.90;;
60098;SDS011;45976;49.400;8.682;2022-07-19T00:49:50;2.13;;;0.90;;
60098;SDS011;45976;49.400;8.682;2022-07-19T00:50:51;1.42;;;0.60;;
60098;SDS011;45976;49.400;8.682;2022-07-19T00:51:52;1.92;;;1.00;;
60098;SDS011;45976;49.400;8.682;2022-07-19T00:52:59;3.85;;;0.73;;
60098;SDS011;45976;49.400;8.682;2022-07-19T00:54:02;2.30;;;0.90;;
60098;SDS011;45976;49.400;8.682;2022-07-19T00:55:03;5.53;;;0.80;;
60098;SDS011;45976;49.400;8.682;2022-07-19T00:56:07;1.70;;;0.88;;
60098;SDS011;45976;49.400;8.682;2022-07-19T00:57:10;1.88;;;0.93;;
60098;SDS011;45976;49.400;8.682;2022-07-19T00:58:12;6.47;;;0.80;;
60098;SDS011;45976;49.400;8.682;2022-07-19T00:59:17;3.65;;;1.08;;
60098;SDS011;45976;49.400;8.682;2022-07-19T01:00:18;2.13;;;0.90;;
60098;SDS011;45976;49.400;8.682;2022-07-19T01:01:19;3.60;;;0.93;;
60098;SDS011;45976;49.400;8.682;2022-07-19T01:02:20;1.98;;;0.75;;
60098;SDS011;45976;49.400;8.682;2022-07-19T01:03:21;2.53;;;1.00;;
60098;SDS011;45976;49.400;8.682;2022-07-19T01:04:24;2.33;;;1.00;;
60098;SDS011;45976;49.400;8.682;2022-07-19T01:05:26;1.92;;;0.88;;
60098;SDS011;45976;49.400;8.682;2022-07-19T01:06:29;2.45;;;0.93;;
60098;SDS011;45976;49.400;8.682;2022-07-19T01:07:29;1.70;;;1.10;;
60098;SDS011;45976;49.400;8.682;2022-07-19T01:08:30;4.03;;;0.60;;
60098;SDS011;45976;49.400;8.682;2022-07-19T01:09:33;4.18;;;1.00;;
60098;SDS011;45976;49.400;8.682;2022-07-19T01:10:37;1.58;;;1.02;;
60098;SDS011;45976;49.400;8.682;2022-07-19T01:11:38;1.13;;;0.85;;
60098;SDS011;45976;49.400;8.682;2022-07-19T01:12:40;5.40;;;1.38;;
60098;SDS011;45976;49.400;8.682;2022-07-19T01:13:42;3.63;;;1.05;;
60098;SDS011;45976;49.400;8.682;2022-07-19T01:14:43;3.47;;;0.95;;
60098;SDS011;45976;49.400;8.682;2022-07-19T01:15:43;3.47;;;1.63;;
60098;SDS011;45976;49.400;8.682;2022-07-19T01:16:44;6.60;;;1.27;;
60098;SDS011;45976;49.400;8.682;2022-07-19T01:17:47;1.48;;;0.90;;
60098;SDS011;45976;49.400;8.682;2022-07-19T01:18:48;4.25;;;1.05;;
60098;SDS011;45976;49.400;8.682;2022-07-19T01:19:52;2.78;;;0.80;;
60098;SDS011;45976;49.400;8.682;2022-07-19T01:20:55;1.75;;;0.80;;
60098;SDS011;45976;49.400;8.682;2022-07-19T01:21:58;2.30;;;1.08;;
60098;SDS011;45976;49.400;8.682;2022-07-19T01:22:59;3.38;;;1.00;;
60098;SDS011;45976;49.400;8.682;2022-07-19T01:24:00;2.28;;;1.00;;
60098;SDS011;45976;49.400;8.682;2022-07-19T01:25:01;3.93;;;0.97;;
60098;SDS011;45976;49.400;8.682;2022-07-19T01:26:02;2.50;;;0.75;;
60098;SDS011;45976;49.400;8.682;2022-07-19T01:27:02;2.15;;;0.90;;
60098;SDS011;45976;49.400;8.682;2022-07-19T01:28:04;1.55;;;0.93;;
60098;SDS011;45976;49.400;8.682;2022-07-19T01:29:07;2.70;;;1.08;;
60098;SDS011;45976;49.400;8.682;2022-07-19T01:30:11;7.22;;;1.00;;
60098;SDS011;45976;49.400;8.682;2022-07-19T01:31:24;5.07;;;1.10;;
60098;SDS011;45976;49.400;8.682;2022-07-19T01:32:25;2.83;;;1.00;;
60098;SDS011;45976;49.400;8.682;2022-07-19T01:33:26;3.63;;;1.13;;
60098;SDS011;45976;49.400;8.682;2022-07-19T01:34:26;4.30;;;1.30;;
60098;SDS011;45976;49.400;8.682;2022-07-19T01:35:27;3.77;;;1.10;;
60098;SDS011;45976;49.400;8.682;2022-07-19T01:36:29;1.85;;;1.08;;
60098;SDS011;45976;49.400;8.682;2022-07-19T01:37:29;3.50;;;0.93;;
60098;SDS011;45976;49.400;8.682;2022-07-19T01:38:30;3.37;;;0.90;;
60098;SDS011;45976;49.400;8.682;2022-07-19T01:39:30;2.10;;;1.13;;
60098;SDS011;45976;49.400;8.682;2022-07-19T01:40:31;1.90;;;0.80;;
60098;SDS011;45976;49.400;8.682;2022-07-19T01:41:33;2.88;;;1.15;;
60098;SDS011;45976;49.400;8.682;2022-07-19T01:42:33;3.97;;;1.00;;
60098;SDS011;45976;49.400;8.682;2022-07-19T01:43:34;3.30;;;1.17;;
60098;SDS011;45976;49.400;8.682;2022-07-19T01:44:36;3.13;;;1.08;;
60098;SDS011;45976;49.400;8.682;2022-07-19T01:45:36;1.53;;;1.03;;
60098;SDS011;45976;49.400;8.682;2022-07-19T01:46:37;2.20;;;0.90;;
60098;SDS011;45976;49.400;8.682;2022-07-19T01:47:38;3.70;;;1.13;;
60098;SDS011;45976;49.400;8.682;2022-07-19T01:48:41;4.05;;;1.25;;
60098;SDS011;45976;49.400;8.682;2022-07-19T01:49:41;2.45;;;0.90;;
60098;SDS011;45976;49.400;8.682;2022-07-19T01:50:42;2.65;;;1.20;;
60098;SDS011;45976;49.400;8.682;2022-07-19T01:51:43;4.10;;;1.20;;
60098;SDS011;45976;49.400;8.682;2022-07-19T01:52:44;3.80;;;0.83;;
60098;SDS011;45976;49.400;8.682;2022-07-19T01:53:45;1.75;;;0.90;;
60098;SDS011;45976;49.400;8.682;2022-07-19T01:54:46;4.70;;;0.95;;
60098;SDS011;45976;49.400;8.682;2022-07-19T01:55:47;2.05;;;1.05;;
60098;SDS011;45976;49.400;8.682;2022-07-19T01:56:48;1.60;;;0.63;;
60098;SDS011;45976;49.400;8.682;2022-07-19T01:57:49;1.77;;;0.80;;
60098;SDS011;45976;49.400;8.682;2022-07-19T01:58:49;2.78;;;1.00;;
60098;SDS011;45976;49.400;8.682;2022-07-19T01:59:50;3.70;;;0.98;;
60098;SDS011;45976;49.400;8.682;2022-07-19T02:00:51;5.07;;;1.03;;
60098;SDS011;45976;49.400;8.682;2022-07-19T02:01:51;1.63;;;0.97;;
60098;SDS011;45976;49.400;8.682;2022-07-19T02:02:52;5.60;;;1.47;;
60098;SDS011;45976;49.400;8.682;2022-07-19T02:03:53;4.17;;;0.90;;
60098;SDS011;45976;49.400;8.682;2022-07-19T02:04:53;2.13;;;0.90;;
60098;SDS011;45976;49.400;8.682;2022-07-19T02:05:54;1.77;;;0.90;;
60098;SDS011;45976;49.400;8.682;2022-07-19T02:06:55;4.10;;;1.20;;
60098;SDS011;45976;49.400;8.682;2022-07-19T02:07:56;5.57;;;1.30;;
60098;SDS011;45976;49.400;8.682;2022-07-19T02:08:56;4.93;;;1.07;;
60098;SDS011;45976;49.400;8.682;2022-07-19T02:09:57;1.50;;;0.73;;
60098;SDS011;45976;49.400;8.682;2022-07-19T02:10:58;1.45;;;0.98;;
60098;SDS011;45976;49.400;8.682;2022-07-19T02:11:59;3.83;;;1.23;;
60098;SDS011;45976;49.400;8.682;2022-07-19T02:13:00;3.70;;;1.00;;
60098;SDS011;45976;49.400;8.682;2022-07-19T02:14:01;2.25;;;0.98;;
60098;SDS011;45976;49.400;8.682;2022-07-19T02:15:04;1.77;;;0.95;;
60098;SDS011;45976;49.400;8.682;2022-07-19T02:16:06;8.75;;;1.35;;
60098;SDS011;45976;49.400;8.682;2022-07-19T02:17:07;2.47;;;0.93;;
60098;SDS011;45976;49.400;8.682;2022-07-19T02:18:08;5.07;;;1.20;;
60098;SDS011;45976;49.400;8.682;2022-07-19T02:19:08;2.43;;;1.20;;
60098;SDS011;45976;49.400;8.682;2022-07-19T02:20:10;10.00;;;1.05;;
60098;SDS011;45976;49.400;8.682;2022-07-19T02:21:12;2.67;;;1.10;;
60098;SDS011;45976;49.400;8.682;2022-07-19T02:22:15;2.80;;;1.00;;
60098;SDS011;45976;49.400;8.682;2022-07-19T02:23:15;2.50;;;1.13;;
60098;SDS011;45976;49.400;8.682;2022-07-19T02:24:16;1.80;;;1.10;;
60098;SDS011;45976;49.400;8.682;2022-07-19T02:25:17;3.38;;;1.33;;
60098;SDS011;45976;49.400;8.682;2022-07-19T02:27:19;7.75;;;1.33;;
60098;SDS011;45976;49.400;8.682;2022-07-19T02:28:19;1.70;;;0.97;;
60098;SDS011;45976;49.400;8.682;2022-07-19T02:29:20;3.57;;;1.13;;
60098;SDS011;45976;49.400;8.682;2022-07-19T02:30:21;1.83;;;1.10;;
60098;SDS011;45976;49.400;8.682;2022-07-19T02:31:21;2.80;;;1.50;;
60098;SDS011;45976;49.400;8.682;2022-07-19T02:32:22;3.63;;;1.10;;
60098;SDS011;45976;49.400;8.682;2022-07-19T02:33:23;7.37;;;1.53;;
60098;SDS011;45976;49.400;8.682;2022-07-19T02:34:23;5.33;;;1.20;;
60098;SDS011;45976;49.400;8.682;2022-07-19T02:35:24;1.60;;;1.20;;
60098;SDS011;45976;49.400;8.682;2022-07-19T02:36:25;4.15;;;1.38;;
60098;SDS011;45976;49.400;8.682;2022-07-19T02:37:25;3.93;;;1.10;;
60098;SDS011;45976;49.400;8.682;2022-07-19T02:38:26;7.80;;;1.37;;
60098;SDS011;45976;49.400;8.682;2022-07-19T02:39:27;2.47;;;1.20;;
60098;SDS011;45976;49.400;8.682;2022-07-19T02:40:27;2.35;;;1.20;;
60098;SDS011;45976;49.400;8.682;2022-07-19T02:41:28;2.90;;;1.23;;
60098;SDS011;45976;49.400;8.682;2022-07-19T02:42:29;2.53;;;1.00;;
60098;SDS011;45976;49.400;8.682;2022-07-19T02:43:29;2.27;;;0.80;;
60098;SDS011;45976;49.400;8.682;2022-07-19T02:44:30;2.33;;;1.30;;
60098;SDS011;45976;49.400;8.682;2022-07-19T02:45:30;2.57;;;1.10;;
60098;SDS011;45976;49.400;8.682;2022-07-19T02:46:31;2.90;;;1.35;;
60098;SDS011;45976;49.400;8.682;2022-07-19T02:47:32;3.92;;;1.25;;
60098;SDS011;45976;49.400;8.682;2022-07-19T02:48:33;4.43;;;1.25;;
60098;SDS011;45976;49.400;8.682;2022-07-19T02:49:33;4.43;;;1.20;;
60098;SDS011;45976;49.400;8.682;2022-07-19T02:50:34;2.50;;;1.10;;
60098;SDS011;45976;49.400;8.682;2022-07-19T02:51:35;5.57;;;1.10;;
60098;SDS011;45976;49.400;8.682;2022-07-19T02:52:36;4.00;;;1.13;;
60098;SDS011;45976;49.400;8.682;2022-07-19T02:53:36;4.75;;;1.10;;
60098;SDS011;45976;49.400;8.682;2022-07-19T02:54:38;3.05;;;1.42;;
60098;SDS011;45976;49.400;8.682;2022-07-19T02:55:39;6.55;;;1.40;;
60098;SDS011;45976;49.400;8.682;2022-07-19T02:56:40;3.38;;;1.42;;
60098;SDS011;45976;49.400;8.682;2022-07-19T02:57:40;4.80;;;1.02;;
60098;SDS011;45976;49.400;8.682;2022-07-19T02:58:41;3.37;;;1.10;;
60098;SDS011;45976;49.400;8.682;2022-07-19T02:59:42;5.27;;;1.47;;
60098;SDS011;45976;49.400;8.682;2022-07-19T03:00:42;1.40;;;1.13;;
60098;SDS011;45976;49.400;8.682;2022-07-19T03:01:43;1.63;;;1.20;;
60098;SDS011;45976;49.400;8.682;2022-07-19T03:02:45;2.95;;;1.02;;
60098;SDS011;45976;49.400;8.682;2022-07-19T03:03:46;10.52;;;1.15;;
60098;SDS011;45976;49.400;8.682;2022-07-19T03:04:50;2.58;;;1.33;;
60098;SDS011;45976;49.400;8.682;2022-07-19T03:05:51;4.45;;;1.15;;
60098;SDS011;45976;49.400;8.682;2022-07-19T03:06:51;2.88;;;1.45;;
60098;SDS011;45976;49.400;8.682;2022-07-19T03:07:52;2.55;;;1.10;;
60098;SDS011;45976;49.400;8.682;2022-07-19T03:08:53;1.30;;;1.10;;
60098;SDS011;45976;49.400;8.682;2022-07-19T03:09:54;2.08;;;1.00;;
60098;SDS011;45976;49.400;8.682;2022-07-19T03:10:54;4.80;;;1.47;;
60098;SDS011;45976;49.400;8.682;2022-07-19T03:11:55;3.17;;;1.40;;
60098;SDS011;45976;49.400;8.682;2022-07-19T03:12:55;2.20;;;1.10;;
60098;SDS011;45976;49.400;8.682;2022-07-19T03:13:56;5.47;;;1.00;;
60098;SDS011;45976;49.400;8.682;2022-07-19T03:14:57;1.77;;;1.33;;
60098;SDS011;45976;49.400;8.682;2022-07-19T03:15:57;1.92;;;1.17;;
60098;SDS011;45976;49.400;8.682;2022-07-19T03:16:58;3.43;;;1.27;;
60098;SDS011;45976;49.400;8.682;2022-07-19T03:17:59;2.17;;;1.50;;
60098;SDS011;45976;49.400;8.682;2022-07-19T03:18:59;2.53;;;1.13;;
60098;SDS011;45976;49.400;8.682;2022-07-19T03:20:00;3.15;;;1.17;;
60098;SDS011;45976;49.400;8.682;2022-07-19T03:21:02;1.80;;;1.00;;
60098;SDS011;45976;49.400;8.682;2022-07-19T03:22:03;3.65;;;1.20;;
60098;SDS011;45976;49.400;8.682;2022-07-19T03:23:04;7.70;;;1.10;;
60098;SDS011;45976;49.400;8.682;2022-07-19T03:24:04;4.83;;;1.37;;
60098;SDS011;45976;49.400;8.682;2022-07-19T03:25:06;2.30;;;1.00;;
60098;SDS011;45976;49.400;8.682;2022-07-19T03:26:07;5.70;;;0.90;;
60098;SDS011;45976;49.400;8.682;2022-07-19T03:27:08;4.10;;;1.17;;
60098;SDS011;45976;49.400;8.682;2022-07-19T03:28:08;2.95;;;1.20;;
60098;SDS011;45976;49.400;8.682;2022-07-19T03:29:09;4.63;;;1.13;;
60098;SDS011;45976;49.400;8.682;2022-07-19T03:30:10;6.88;;;1.20;;
60098;SDS011;45976;49.400;8.682;2022-07-19T03:31:10;1.80;;;0.80;;
60098;SDS011;45976;49.400;8.682;2022-07-19T03:32:11;2.93;;;1.13;;
60098;SDS011;45976;49.400;8.682;2022-07-19T03:33:11;3.30;;;1.40;;
60098;SDS011;45976;49.400;8.682;2022-07-19T03:34:15;6.75;;;1.23;;
60098;SDS011;45976;49.400;8.682;2022-07-19T03:35:16;1.63;;;0.88;;
60098;SDS011;45976;49.400;8.682;2022-07-19T03:36:17;5.10;;;0.80;;
60098;SDS011;45976;49.400;8.682;2022-07-19T03:37:17;3.37;;;1.43;;
60098;SDS011;45976;49.400;8.682;2022-07-19T03:38:18;4.10;;;1.20;;
60098;SDS011;45976;49.400;8.682;2022-07-19T03:39:19;12.02;;;1.40;;
60098;SDS011;45976;49.400;8.682;2022-07-19T03:40:19;2.97;;;1.20;;
60098;SDS011;45976;49.400;8.682;2022-07-19T03:41:20;1.70;;;1.08;;
60098;SDS011;45976;49.400;8.682;2022-07-19T03:42:20;2.60;;;1.07;;
60098;SDS011;45976;49.400;8.682;2022-07-19T03:43:21;3.53;;;1.27;;
60098;SDS011;45976;49.400;8.682;2022-07-19T03:44:23;8.43;;;1.60;;
60098;SDS011;45976;49.400;8.682;2022-07-19T03:45:23;9.70;;;1.58;;
60098;SDS011;45976;49.400;8.682;2022-07-19T03:46:24;4.93;;;1.33;;
60098;SDS011;45976;49.400;8.682;2022-07-19T03:48:26;6.47;;;1.90;;
60098;SDS011;45976;49.400;8.682;2022-07-19T03:49:27;4.10;;;1.63;;
60098;SDS011;45976;49.400;8.682;2022-07-19T03:50:28;2.55;;;1.33;;
60098;SDS011;45976;49.400;8.682;2022-07-19T03:51:29;2.60;;;1.43;;
60098;SDS011;45976;49.400;8.682;2022-07-19T03:52:30;5.90;;;2.03;;
60098;SDS011;45976;49.400;8.682;2022-07-19T03:53:32;2.70;;;1.45;;
60098;SDS011;45976;49.400;8.682;2022-07-19T03:54:34;5.57;;;1.75;;
60098;SDS011;45976;49.400;8.682;2022-07-19T03:55:35;5.77;;;1.40;;
60098;SDS011;45976;49.400;8.682;2022-07-19T03:56:36;4.57;;;1.60;;
60098;SDS011;45976;49.400;8.682;2022-07-19T03:57:36;7.10;;;1.83;;
60098;SDS011;45976;49.400;8.682;2022-07-19T03:58:37;6.60;;;1.67;;
60098;SDS011;45976;49.400;8.682;2022-07-19T03:59:37;6.38;;;1.58;;
60098;SDS011;45976;49.400;8.682;2022-07-19T04:00:38;4.87;;;1.87;;
60098;SDS011;45976;49.400;8.682;2022-07-19T04:01:39;4.28;;;1.70;;
60098;SDS011;45976;49.400;8.682;2022-07-19T04:02:40;2.78;;;1.70;;
60098;SDS011;45976;49.400;8.682;2022-07-19T04:03:41;9.02;;;1.90;;
60098;SDS011;45976;49.400;8.682;2022-07-19T04:04:42;3.78;;;1.75;;
60098;SDS011;45976;49.400;8.682;2022-07-19T04:05:43;7.60;;;1.92;;
60098;SDS011;45976;49.400;8.682;2022-07-19T04:06:44;2.77;;;1.33;;
60098;SDS011;45976;49.400;8.682;2022-07-19T04:07:44;5.13;;;1.88;;
60098;SDS011;45976;49.400;8.682;2022-07-19T04:08:45;5.47;;;1.80;;
60098;SDS011;45976;49.400;8.682;2022-07-19T04:09:46;5.22;;;1.33;;
60098;SDS011;45976;49.400;8.682;2022-07-19T04:10:46;3.57;;;1.17;;
60098;SDS011;45976;49.400;8.682;2022-07-19T04:11:47;6.40;;;2.23;;
60098;SDS011;45976;49.400;8.682;2022-07-19T04:12:47;4.60;;;1.58;;
60098;SDS011;45976;49.400;8.682;2022-07-19T04:13:48;3.15;;;1.58;;
60098;SDS011;45976;49.400;8.682;2022-07-19T04:14:49;5.03;;;1.60;;
60098;SDS011;45976;49.400;8.682;2022-07-19T04:15:50;2.60;;;1.50;;
60098;SDS011;45976;49.400;8.682;2022-07-19T04:16:50;2.87;;;1.53;;
60098;SDS011;45976;49.400;8.682;2022-07-19T04:17:51;6.53;;;1.57;;
60098;SDS011;45976;49.400;8.682;2022-07-19T04:18:52;6.97;;;1.55;;
60098;SDS011;45976;49.400;8.682;2022-07-19T04:19:52;2.33;;;1.60;;
60098;SDS011;45976;49.400;8.682;2022-07-19T04:20:53;3.20;;;1.43;;
60098;SDS011;45976;49.400;8.682;2022-07-19T04:21:54;3.57;;;1.47;;
60098;SDS011;45976;49.400;8.682;2022-07-19T04:22:54;4.67;;;1.30;;
60098;SDS011;45976;49.400;8.682;2022-07-19T04:23:58;4.38;;;1.40;;
60098;SDS011;45976;49.400;8.682;2022-07-19T04:24:58;3.00;;;1.35;;
60098;SDS011;45976;49.400;8.682;2022-07-19T04:25:59;2.75;;;1.33;;
60098;SDS011;45976;49.400;8.682;2022-07-19T04:27:00;5.55;;;1.30;;
60098;SDS011;45976;49.400;8.682;2022-07-19T04:28:01;6.03;;;1.40;;
60098;SDS011;45976;49.400;8.682;2022-07-19T04:29:03;4.68;;;1.30;;
60098;SDS011;45976;49.400;8.682;2022-07-19T04:30:06;3.70;;;1.57;;
60098;SDS011;45976;49.400;8.682;2022-07-19T04:31:07;2.47;;;1.42;;
60098;SDS011;45976;49.400;8.682;2022-07-19T04:32:08;7.30;;;1.47;;
60098;SDS011;45976;49.400;8.682;2022-07-19T04:33:09;2.03;;;1.13;;
60098;SDS011;45976;49.400;8.682;2022-07-19T04:34:09;7.25;;;1.63;;
60098;SDS011;45976;49.400;8.682;2022-07-19T04:35:10;16.33;;;1.95;;
60098;SDS011;45976;49.400;8.682;2022-07-19T04:36:11;3.50;;;1.30;;
60098;SDS011;45976;49.400;8.682;2022-07-19T04:37:11;4.47;;;1.77;;
60098;SDS011;45976;49.400;8.682;2022-07-19T04:38:12;4.18;;;1.75;;
60098;SDS011;45976;49.400;8.682;2022-07-19T04:39:13;3.90;;;1.55;;
60098;SDS011;45976;49.400;8.682;2022-07-19T04:40:13;7.37;;;2.00;;
60098;SDS011;45976;49.400;8.682;2022-07-19T04:41:14;8.77;;;2.47;;
60098;SDS011;45976;49.400;8.682;2022-07-19T04:42:15;3.33;;;1.80;;
60098;SDS011;45976;49.400;8.682;2022-07-19T04:43:16;17.43;;;2.80;;
60098;SDS011;45976;49.400;8.682;2022-07-19T04:44:17;19.65;;;5.22;;
60098;SDS011;45976;49.400;8.682;2022-07-19T04:45:18;7.75;;;2.42;;
60098;SDS011;45976;49.400;8.682;2022-07-19T04:46:18;3.47;;;1.73;;
60098;SDS011;45976;49.400;8.682;2022-07-19T04:47:19;5.93;;;2.20;;
60098;SDS011;45976;49.400;8.682;2022-07-19T04:48:22;9.10;;;2.60;;
60098;SDS011;45976;49.400;8.682;2022-07-19T04:49:23;15.07;;;2.53;;
60098;SDS011;45976;49.400;8.682;2022-07-19T04:50:23;16.80;;;2.83;;
60098;SDS011;45976;49.400;8.682;2022-07-19T04:51:24;8.55;;;2.90;;
60098;SDS011;45976;49.400;8.682;2022-07-19T04:52:25;9.93;;;2.08;;
60098;SDS011;45976;49.400;8.682;2022-07-19T04:53:26;10.20;;;2.27;;
60098;SDS011;45976;49.400;8.682;2022-07-19T04:54:26;6.53;;;2.53;;
60098;SDS011;45976;49.400;8.682;2022-07-19T04:55:27;10.20;;;2.15;;
60098;SDS011;45976;49.400;8.682;2022-07-19T04:56:27;10.70;;;2.67;;
60098;SDS011;45976;49.400;8.682;2022-07-19T04:57:28;8.97;;;2.13;;
60098;SDS011;45976;49.400;8.682;2022-07-19T04:58:29;9.63;;;2.70;;
60098;SDS011;45976;49.400;8.682;2022-07-19T04:59:29;6.17;;;1.93;;
60098;SDS011;45976;49.400;8.682;2022-07-19T05:00:30;9.70;;;1.77;;
60098;SDS011;45976;49.400;8.682;2022-07-19T05:01:30;6.25;;;1.67;;
60098;SDS011;45976;49.400;8.682;2022-07-19T05:02:31;3.40;;;1.30;;
60098;SDS011;45976;49.400;8.682;2022-07-19T05:03:32;5.60;;;1.92;;
60098;SDS011;45976;49.400;8.682;2022-07-19T05:04:34;3.50;;;1.40;;
60098;SDS011;45976;49.400;8.682;2022-07-19T05:05:34;7.75;;;1.60;;
60098;SDS011;45976;49.400;8.682;2022-07-19T05:06:35;4.40;;;1.50;;
60098;SDS011;45976;49.400;8.682;2022-07-19T05:07:36;3.35;;;1.40;;
60098;SDS011;45976;49.400;8.682;2022-07-19T05:08:37;11.65;;;1.45;;
60098;SDS011;45976;49.400;8.682;2022-07-19T05:09:37;4.00;;;1.30;;
60098;SDS011;45976;49.400;8.682;2022-07-19T05:10:38;3.88;;;1.52;;
60098;SDS011;45976;49.400;8.682;2022-07-19T05:11:39;8.73;;;1.67;;
60098;SDS011;45976;49.400;8.682;2022-07-19T05:12:41;6.63;;;1.60;;
60098;SDS011;45976;49.400;8.682;2022-07-19T05:13:42;3.60;;;1.48;;
60098;SDS011;45976;49.400;8.682;2022-07-19T05:14:43;6.35;;;1.52;;
60098;SDS011;45976;49.400;8.682;2022-07-19T05:15:43;6.20;;;1.50;;
60098;SDS011;45976;49.400;8.682;2022-07-19T05:16:44;3.42;;;1.10;;
60098;SDS011;45976;49.400;8.682;2022-07-19T05:17:45;3.72;;;1.50;;
60098;SDS011;45976;49.400;8.682;2022-07-19T05:18:46;3.83;;;1.40;;
60098;SDS011;45976;49.400;8.682;2022-07-19T05:19:46;3.37;;;1.43;;
60098;SDS011;45976;49.400;8.682;2022-07-19T05:20:47;7.68;;;2.03;;
60098;SDS011;45976;49.400;8.682;2022-07-19T05:21:48;5.93;;;1.60;;
60098;SDS011;45976;49.400;8.682;2022-07-19T05:22:48;4.00;;;1.50;;
60098;SDS011;45976;49.400;8.682;2022-07-19T05:23:49;7.53;;;1.55;;
60098;SDS011;45976;49.400;8.682;2022-07-19T05:24:50;9.37;;;1.57;;
60098;SDS011;45976;49.400;8.682;2022-07-19T05:25:55;4.93;;;1.40;;
60098;SDS011;45976;49.400;8.682;2022-07-19T05:26:56;4.88;;;2.22;;
60098;SDS011;45976;49.400;8.682;2022-07-19T05:27:57;6.37;;;2.67;;
60098;SDS011;45976;49.400;8.682;2022-07-19T05:28:57;14.38;;;2.10;;
60098;SDS011;45976;49.400;8.682;2022-07-19T05:29:58;12.52;;;2.55;;
60098;SDS011;45976;49.400;8.682;2022-07-19T05:30:58;11.93;;;1.77;;
60098;SDS011;45976;49.400;8.682;2022-07-19T05:31:59;12.30;;;4.17;;
60098;SDS011;45976;49.400;8.682;2022-07-19T05:33:00;9.40;;;2.47;;
60098;SDS011;45976;49.400;8.682;2022-07-19T05:34:02;14.48;;;2.65;;
60098;SDS011;45976;49.400;8.682;2022-07-19T05:36:04;5.88;;;1.98;;
60098;SDS011;45976;49.400;8.682;2022-07-19T05:37:05;12.60;;;2.10;;
60098;SDS011;45976;49.400;8.682;2022-07-19T05:38:06;9.13;;;2.72;;
60098;SDS011;45976;49.400;8.682;2022-07-19T05:39:07;13.17;;;2.63;;
60098;SDS011;45976;49.400;8.682;2022-07-19T05:40:08;21.75;;;2.95;;
60098;SDS011;45976;49.400;8.682;2022-07-19T05:41:09;11.75;;;2.28;;
60098;SDS011;45976;49.400;8.682;2022-07-19T05:42:10;4.35;;;2.17;;
60098;SDS011;45976;49.400;8.682;2022-07-19T05:43:11;7.10;;;2.30;;
60098;SDS011;45976;49.400;8.682;2022-07-19T05:44:12;16.90;;;2.93;;
60098;SDS011;45976;49.400;8.682;2022-07-19T05:45:13;6.38;;;1.92;;
60098;SDS011;45976;49.400;8.682;2022-07-19T05:46:15;12.52;;;2.30;;
60098;SDS011;45976;49.400;8.682;2022-07-19T05:47:16;14.55;;;2.53;;
60098;SDS011;45976;49.400;8.682;2022-07-19T05:48:17;12.05;;;2.60;;
60098;SDS011;45976;49.400;8.682;2022-07-19T05:49:18;8.80;;;2.70;;
60098;SDS011;45976;49.400;8.682;2022-07-19T05:50:19;24.40;;;2.80;;
60098;SDS011;45976;49.400;8.682;2022-07-19T05:51:21;13.10;;;3.13;;
60098;SDS011;45976;49.400;8.682;2022-07-19T05:52:21;16.67;;;2.83;;
60098;SDS011;45976;49.400;8.682;2022-07-19T05:53:22;7.63;;;2.80;;
60098;SDS011;45976;49.400;8.682;2022-07-19T05:54:23;8.95;;;2.22;;
60098;SDS011;45976;49.400;8.682;2022-07-19T05:55:23;13.47;;;2.10;;
60098;SDS011;45976;49.400;8.682;2022-07-19T05:56:24;8.87;;;1.83;;
60098;SDS011;45976;49.400;8.682;2022-07-19T05:57:24;17.73;;;2.70;;
60098;SDS011;45976;49.400;8.682;2022-07-19T05:58:25;9.60;;;1.80;;
60098;SDS011;45976;49.400;8.682;2022-07-19T05:59:26;8.60;;;1.58;;
60098;SDS011;45976;49.400;8.682;2022-07-19T06:00:26;4.85;;;1.52;;
60098;SDS011;45976;49.400;8.682;2022-07-19T06:01:28;5.70;;;1.65;;
60098;SDS011;45976;49.400;8.682;2022-07-19T06:02:28;4.90;;;1.58;;
60098;SDS011;45976;49.400;8.682;2022-07-19T06:03:29;5.82;;;1.55;;
60098;SDS011;45976;49.400;8.682;2022-07-19T06:04:30;3.08;;;1.50;;
60098;SDS011;45976;49.400;8.682;2022-07-19T06:05:30;5.50;;;1.40;;
60098;SDS011;45976;49.400;8.682;2022-07-19T06:06:32;2.93;;;1.27;;
60098;SDS011;45976;49.400;8.682;2022-07-19T06:07:34;7.50;;;1.10;;
60098;SDS011;45976;49.400;8.682;2022-07-19T06:08:35;7.68;;;1.40;;
60098;SDS011;45976;49.400;8.682;2022-07-19T06:09:35;9.45;;;1.20;;
60098;SDS011;45976;49.400;8.682;2022-07-19T06:10:36;3.85;;;1.00;;
60098;SDS011;45976;49.400;8.682;2022-07-19T06:11:37;1.87;;;1.07;;
60098;SDS011;45976;49.400;8.682;2022-07-19T06:12:40;5.38;;;1.15;;